Chippewa Lake, Ohio
Current Conditions -  °F | °C
As of 11:56 AM on Monday 22 Dec 2014 (Local Time) from KBJJ Reporting Station
Haze Haze  
Wind Chill: 26°   Ceiling: 4500
Heat Index: 32°   Visibility: 6mi
Dew Point: 28°   Wind: 7mph
Humidity: 85%   Direction: 130°SE
Pressure: 30.04"   Gusts: NA
Location:  41.07°N, 81.9°W
Report Text: KBJJ 221656Z AUTO 13006KT 6SM BR OVC045 00/M02 A3004 RMK AO2 SLP186 T00001022 TSNO
Loading
Personal Weather Stations






























Interactive Weather Map New forecast layout! Learn more

10-Day Weather Forecast

Advertisements
Track Severe Weather on mobile